Time,TemperatureF,DewpointF,PressureIn,WindDirection,WindDirectionDegrees,WindSpeedMPH,WindSpeedGustMPH,Humidity,HourlyPrecipIn,Conditions,Clouds,dailyrainin,SoftwareType,DateUTC
2013-02-20 00:14:00,28.7,15.0,30.30,WNW,291,0.0,6.0,58,0.00,,,0.00,weatherlink.com 1.10,2013-02-20 06:14:00,
2013-02-20 00:29:00,28.7,16.0,30.30,NW,320,0.0,7.0,60,0.00,,,0.00,weatherlink.com 1.10,2013-02-20 06:29:00,
2013-02-20 00:44:00,28.2,17.0,30.30,NW,307,1.0,5.0,62,0.00,,,0.00,weatherlink.com 1.10,2013-02-20 06:44:00,
2013-02-20 00:59:00,27.6,16.0,30.31,NW,309,0.0,5.0,62,0.00,,,0.00,weatherlink.com 1.10,2013-02-20 06:59:00,
2013-02-20 01:14:00,27.1,16.0,30.31,NW,317,1.0,4.0,64,0.00,,,0.00,weatherlink.com 1.10,2013-02-20 07:14:00,
2013-02-20 01:29:00,26.7,17.0,30.31,North,3,0.0,2.0,66,0.00,,,0.00,weatherlink.com 1.10,2013-02-20 07:29:00,
2013-02-20 01:44:00,26.1,18.0,30.30,NNW,345,0.0,2.0,71,0.00,,,0.00,weatherlink.com 1.10,2013-02-20 07:44:00,
2013-02-20 01:59:00,25.3,18.0,30.31,NNW,345,0.0,0.0,75,0.00,,,0.00,weatherlink.com 1.10,2013-02-20 07:59:00,
2013-02-20 02:14:00,25.4,18.0,30.30,NNW,334,0.0,6.0,72,0.00,,,0.00,weatherlink.com 1.10,2013-02-20 08:14:00,
2013-02-20 02:29:00,25.9,17.0,30.30,NW,312,3.0,4.0,69,0.00,,,0.00,weatherlink.com 1.10,2013-02-20 08:29:00,
2013-02-20 02:44:00,26.1,17.0,30.29,NW,325,0.0,4.0,68,0.00,,,0.00,weatherlink.com 1.10,2013-02-20 08:44:00,
2013-02-20 02:59:00,26.0,17.0,30.30,NNW,346,0.0,3.0,68,0.00,,,0.00,weatherlink.com 1.10,2013-02-20 08:59:00,
2013-02-20 03:14:00,25.9,17.0,30.30,NW,306,4.0,5.0,68,0.00,,,0.00,weatherlink.com 1.10,2013-02-20 09:14:00,
2013-02-20 03:29:00,25.9,16.0,30.30,NW,305,1.0,7.0,65,0.00,,,0.00,weatherlink.com 1.10,2013-02-20 09:29:00,
2013-02-20 03:44:00,25.6,16.0,30.30,NW,309,0.0,3.0,66,0.00,,,0.00,weatherlink.com 1.10,2013-02-20 09:44:00,
2013-02-20 03:59:00,25.1,16.0,30.31,NW,308,0.0,3.0,68,0.00,,,0.00,weatherlink.com 1.10,2013-02-20 09:59:00,
2013-02-20 04:14:00,24.6,16.0,30.32,NW,311,0.0,1.0,69,0.00,,,0.00,weatherlink.com 1.10,2013-02-20 10:14:00,
2013-02-20 04:29:00,23.6,16.0,30.32,NW,311,0.0,0.0,74,0.00,,,0.00,weatherlink.com 1.10,2013-02-20 10:29:00,
2013-02-20 04:44:00,22.7,17.0,30.33,NW,311,0.0,0.0,77,0.00,,,0.00,weatherlink.com 1.10,2013-02-20 10:44:00,
2013-02-20 05:00:00,22.0,17.0,30.32,NW,311,0.0,0.0,81,0.00,,,0.00,weatherlink.com 1.10,2013-02-20 11:00:00,
2013-02-20 05:14:00,21.3,17.0,30.32,NW,311,0.0,0.0,82,0.00,,,0.00,weatherlink.com 1.10,2013-02-20 11:14:00,
2013-02-20 05:29:00,21.0,17.0,30.32,NW,311,0.0,0.0,83,0.00,,,0.00,weatherlink.com 1.10,2013-02-20 11:29:00,
2013-02-20 05:44:00,20.7,16.0,30.32,NW,311,0.0,0.0,83,0.00,,,0.00,weatherlink.com 1.10,2013-02-20 11:44:00,
2013-02-20 05:59:00,20.3,16.0,30.32,NW,311,0.0,0.0,83,0.00,,,0.00,weatherlink.com 1.10,2013-02-20 11:59:00,
2013-02-20 06:15:00,20.3,17.0,30.32,NW,311,0.0,0.0,87,0.00,,,0.00,weatherlink.com 1.10,2013-02-20 12:15:00,
2013-02-20 06:29:00,20.2,17.0,30.32,NW,311,0.0,0.0,88,0.00,,,0.00,weatherlink.com 1.10,2013-02-20 12:29:00,
2013-02-20 06:44:00,20.2,17.0,30.33,NW,311,0.0,0.0,87,0.00,,,0.00,weatherlink.com 1.10,2013-02-20 12:44:00,
2013-02-20 06:59:00,20.5,17.0,30.33,NW,311,0.0,0.0,86,0.00,,,0.00,weatherlink.com 1.10,2013-02-20 12:59:00,
2013-02-20 07:15:00,21.1,18.0,30.35,NW,311,0.0,0.0,86,0.00,,,0.00,weatherlink.com 1.10,2013-02-20 13:15:00,
2013-02-20 07:30:00,22.2,18.0,30.35,NW,311,0.0,1.0,83,0.00,,,0.00,weatherlink.com 1.10,2013-02-20 13:30:00,
2013-02-20 07:45:00,24.1,17.0,30.35,NNE,17,1.0,4.0,74,0.00,,,0.00,weatherlink.com 1.10,2013-02-20 13:45:00,
2013-02-20 08:00:00,25.8,17.0,30.36,WNW,303,3.0,6.0,68,0.00,,,0.00,weatherlink.com 1.10,2013-02-20 14:00:00,
2013-02-20 08:15:00,26.9,15.0,30.37,NNE,19,3.0,6.0,62,0.00,,,0.00,weatherlink.com 1.10,2013-02-20 14:15:00,
2013-02-20 08:30:00,27.4,17.0,30.38,NE,41,3.0,7.0,64,0.00,,,0.00,weatherlink.com 1.10,2013-02-20 14:30:00,
2013-02-20 08:45:00,29.2,16.0,30.38,WNW,298,1.0,5.0,59,0.00,,,0.00,weatherlink.com 1.10,2013-02-20 14:45:00,
2013-02-20 09:00:00,28.6,15.0,30.38,North,360,3.0,10.0,56,0.00,,,0.00,weatherlink.com 1.10,2013-02-20 15:00:00,
2013-02-20 09:15:00,28.2,16.0,30.39,East,82,1.0,5.0,61,0.00,,,0.00,weatherlink.com 1.10,2013-02-20 15:15:00,
2013-02-20 09:30:00,28.1,15.0,30.40,NNE,24,0.0,4.0,58,0.00,,,0.00,weatherlink.com 1.10,2013-02-20 15:30:00,
2013-02-20 09:45:00,28.1,16.0,30.39,West,278,3.0,5.0,62,0.00,,,0.00,weatherlink.com 1.10,2013-02-20 15:45:00,
2013-02-20 10:00:00,28.8,16.0,30.39,North,357,5.0,5.0,58,0.00,,,0.00,weatherlink.com 1.10,2013-02-20 16:00:00,
2013-02-20 10:15:00,28.8,15.0,30.38,NNE,31,5.0,6.0,57,0.00,,,0.00,weatherlink.com 1.10,2013-02-20 16:15:00,
2013-02-20 10:30:00,28.7,15.0,30.38,NNE,22,5.0,5.0,56,0.00,,,0.00,weatherlink.com 1.10,2013-02-20 16:30:00,
2013-02-20 10:45:00,29.0,15.0,30.39,North,350,2.0,6.0,56,0.00,,,0.00,weatherlink.com 1.10,2013-02-20 16:45:00,
2013-02-20 11:00:00,29.2,14.0,30.39,NW,314,1.0,5.0,53,0.00,,,0.00,weatherlink.com 1.10,2013-02-20 17:00:00,
2013-02-20 11:15:00,29.3,14.0,30.38,NNE,17,0.0,7.0,52,0.00,,,0.00,weatherlink.com 1.10,2013-02-20 17:15:00,
2013-02-20 11:30:00,29.5,15.0,30.37,NNW,348,1.0,5.0,55,0.00,,,0.00,weatherlink.com 1.10,2013-02-20 17:30:00,
2013-02-20 11:45:00,29.8,15.0,30.37,NNW,344,1.0,5.0,55,0.00,,,0.00,weatherlink.com 1.10,2013-02-20 17:45:00,
2013-02-20 12:00:00,30.7,15.0,30.37,NW,323,1.0,6.0,53,0.00,,,0.00,weatherlink.com 1.10,2013-02-20 18:00:00,
2013-02-20 12:15:00,30.2,15.0,30.37,North,359,5.0,5.0,53,0.00,,,0.00,weatherlink.com 1.10,2013-02-20 18:15:00,
2013-02-20 12:30:00,30.3,15.0,30.36,NW,318,2.0,5.0,53,0.00,,,0.00,weatherlink.com 1.10,2013-02-20 18:30:00,
2013-02-20 12:45:00,30.8,16.0,30.37,NW,304,2.0,5.0,55,0.00,,,0.00,weatherlink.com 1.10,2013-02-20 18:45:00,
2013-02-20 13:00:00,31.4,16.0,30.37,SW,234,1.0,3.0,54,0.00,,,0.00,weatherlink.com 1.10,2013-02-20 19:00:00,
2013-02-20 13:15:00,31.1,15.0,30.36,NNE,19,1.0,4.0,52,0.00,,,0.00,weatherlink.com 1.10,2013-02-20 19:15:00,
2013-02-20 13:30:00,30.5,15.0,30.35,NE,41,3.0,5.0,52,0.00,,,0.00,weatherlink.com 1.10,2013-02-20 19:30:00,
2013-02-20 13:45:00,30.3,15.0,30.35,North,5,4.0,5.0,53,0.00,,,0.00,weatherlink.com 1.10,2013-02-20 19:45:00,
2013-02-20 14:00:00,30.6,16.0,30.35,NNE,21,2.0,3.0,54,0.00,,,0.00,weatherlink.com 1.10,2013-02-20 20:00:00,
2013-02-20 14:15:00,30.3,15.0,30.33,ENE,67,0.0,3.0,54,0.00,,,0.00,weatherlink.com 1.10,2013-02-20 20:15:00,
2013-02-20 14:30:00,30.3,16.0,30.31,NE,48,6.0,6.0,55,0.00,,,0.00,weatherlink.com 1.10,2013-02-20 20:30:00,
2013-02-20 14:45:00,30.4,16.0,30.29,North,357,2.0,8.0,56,0.00,,,0.00,weatherlink.com 1.10,2013-02-20 20:45:00,
2013-02-20 15:00:00,31.4,17.0,30.30,NNW,346,3.0,9.0,56,0.00,,,0.00,weatherlink.com 1.10,2013-02-20 21:00:00,
2013-02-20 15:15:00,32.5,17.0,30.30,NE,38,2.0,11.0,54,0.00,,,0.00,weatherlink.com 1.10,2013-02-20 21:15:00,
2013-02-20 15:30:00,32.4,16.0,30.30,East,80,2.0,10.0,52,0.00,,,0.00,weatherlink.com 1.10,2013-02-20 21:30:00,
2013-02-20 15:45:00,32.4,16.0,30.29,East,83,3.0,7.0,52,0.00,,,0.00,weatherlink.com 1.10,2013-02-20 21:45:00,
2013-02-20 16:00:00,32.1,16.0,30.28,NE,35,2.0,9.0,52,0.00,,,0.00,weatherlink.com 1.10,2013-02-20 22:00:00,
2013-02-20 16:15:00,32.3,16.0,30.28,NE,49,5.0,8.0,52,0.00,,,0.00,weatherlink.com 1.10,2013-02-20 22:15:00,
2013-02-20 16:30:00,31.7,16.0,30.28,East,81,3.0,6.0,53,0.00,,,0.00,weatherlink.com 1.10,2013-02-20 22:30:00,
2013-02-20 16:45:00,31.6,17.0,30.29,East,97,3.0,7.0,55,0.00,,,0.00,weatherlink.com 1.10,2013-02-20 22:45:00,
2013-02-20 17:00:00,31.0,16.0,30.28,NE,40,1.0,8.0,54,0.00,,,0.00,weatherlink.com 1.10,2013-02-20 23:00:00,
2013-02-20 17:15:00,30.6,16.0,30.28,NNE,19,0.0,4.0,56,0.00,,,0.00,weatherlink.com 1.10,2013-02-20 23:15:00,
2013-02-20 17:31:00,30.0,17.0,30.28,NNE,32,0.0,3.0,59,0.00,,,0.00,weatherlink.com 1.10,2013-02-20 23:31:00,
2013-02-20 17:45:00,29.5,17.0,30.29,NE,49,0.0,2.0,61,0.00,,,0.00,weatherlink.com 1.10,2013-02-20 23:45:00,
2013-02-20 18:00:00,29.1,19.0,30.29,NNE,20,0.0,1.0,65,0.00,,,0.00,weatherlink.com 1.10,2013-02-21 00:00:00,
2013-02-20 18:15:00,28.7,19.0,30.29,NNE,22,0.0,0.0,66,0.00,,,0.00,weatherlink.com 1.10,2013-02-21 00:15:00,
2013-02-20 18:30:00,28.5,18.0,30.30,NNE,22,0.0,2.0,65,0.00,,,0.00,weatherlink.com 1.10,2013-02-21 00:30:00,
2013-02-20 18:45:00,28.1,19.0,30.30,NNE,13,0.0,4.0,68,0.00,,,0.00,weatherlink.com 1.10,2013-02-21 00:45:00,
2013-02-20 19:00:00,27.9,19.0,30.30,NE,42,1.0,4.0,68,0.00,,,0.00,weatherlink.com 1.10,2013-02-21 01:00:00,
2013-02-20 19:15:00,27.8,18.0,30.30,NE,44,1.0,5.0,67,0.00,,,0.00,weatherlink.com 1.10,2013-02-21 01:15:00,
2013-02-20 19:30:00,27.7,18.0,30.30,NNE,13,0.0,4.0,67,0.00,,,0.00,weatherlink.com 1.10,2013-02-21 01:30:00,
2013-02-20 19:45:00,27.1,18.0,30.29,NNE,20,1.0,4.0,69,0.00,,,0.00,weatherlink.com 1.10,2013-02-21 01:45:00,
2013-02-20 20:00:00,27.1,18.0,30.29,ENE,71,0.0,5.0,69,0.00,,,0.00,weatherlink.com 1.10,2013-02-21 02:00:00,
2013-02-20 20:15:00,27.0,18.0,30.30,NE,36,0.0,4.0,70,0.00,,,0.00,weatherlink.com 1.10,2013-02-21 02:15:00,
2013-02-20 20:30:00,26.8,19.0,30.31,ENE,57,0.0,2.0,71,0.00,,,0.00,weatherlink.com 1.10,2013-02-21 02:30:00,
2013-02-20 20:45:00,27.0,19.0,30.31,NE,35,0.0,3.0,71,0.00,,,0.00,weatherlink.com 1.10,2013-02-21 02:45:00,
2013-02-20 21:01:00,26.9,19.0,30.31,North,354,2.0,3.0,72,0.00,,,0.00,weatherlink.com 1.10,2013-02-21 03:01:00,
2013-02-20 21:15:00,26.9,19.0,30.30,NNE,23,2.0,5.0,72,0.00,,,0.00,weatherlink.com 1.10,2013-02-21 03:15:00,
2013-02-20 21:30:00,26.9,19.0,30.30,NE,51,1.0,5.0,72,0.00,,,0.00,weatherlink.com 1.10,2013-02-21 03:30:00,
2013-02-20 21:46:00,26.7,19.0,30.30,NNE,28,5.0,5.0,73,0.00,,,0.00,weatherlink.com 1.10,2013-02-21 03:46:00,
2013-02-20 22:01:00,26.5,19.0,30.29,NE,39,2.0,6.0,73,0.00,,,0.00,weatherlink.com 1.10,2013-02-21 04:01:00,
2013-02-20 22:16:00,26.4,19.0,30.29,NNE,28,1.0,6.0,73,0.00,,,0.00,weatherlink.com 1.10,2013-02-21 04:16:00,
2013-02-20 22:30:00,26.4,19.0,30.29,NE,49,1.0,6.0,74,0.00,,,0.00,weatherlink.com 1.10,2013-02-21 04:30:00,
2013-02-20 22:45:00,26.4,19.0,30.29,NE,34,3.0,7.0,74,0.00,,,0.00,weatherlink.com 1.10,2013-02-21 04:45:00,
2013-02-20 23:00:00,26.4,20.0,30.29,NE,43,6.0,7.0,75,0.00,,,0.00,weatherlink.com 1.10,2013-02-21 05:00:00,
2013-02-20 23:16:00,26.2,19.0,30.29,NE,39,4.0,6.0,75,0.00,,,0.00,weatherlink.com 1.10,2013-02-21 05:16:00,
2013-02-20 23:31:00,26.3,19.0,30.30,NE,54,4.0,8.0,75,0.00,,,0.00,weatherlink.com 1.10,2013-02-21 05:31:00,
2013-02-20 23:46:00,26.4,20.0,30.31,NE,53,0.0,7.0,75,0.00,,,0.00,weatherlink.com 1.10,2013-02-21 05:46:00,